sensor_id;sensor_type;location;lat;lon;timestamp;P1;durP1;ratioP1;P2;durP2;ratioP2
56419;SDS011;42323;52.170;7.538;2024-03-08T00:00:17;5.75;;;4.10;;
56419;SDS011;42323;52.170;7.538;2024-03-08T00:02:45;5.70;;;3.58;;
56419;SDS011;42323;52.170;7.538;2024-03-08T00:05:12;5.82;;;4.60;;
56419;SDS011;42323;52.170;7.538;2024-03-08T00:07:39;9.30;;;6.15;;
56419;SDS011;42323;52.170;7.538;2024-03-08T00:10:07;5.65;;;4.13;;
56419;SDS011;42323;52.170;7.538;2024-03-08T00:12:38;9.13;;;5.60;;
56419;SDS011;42323;52.170;7.538;2024-03-08T00:15:05;6.93;;;4.60;;
56419;SDS011;42323;52.170;7.538;2024-03-08T00:17:32;6.82;;;5.93;;
56419;SDS011;42323;52.170;7.538;2024-03-08T00:19:59;8.20;;;6.07;;
56419;SDS011;42323;52.170;7.538;2024-03-08T00:22:25;5.72;;;4.68;;
56419;SDS011;42323;52.170;7.538;2024-03-08T00:24:52;21.58;;;10.65;;
56419;SDS011;42323;52.170;7.538;2024-03-08T00:27:18;6.40;;;4.90;;
56419;SDS011;42323;52.170;7.538;2024-03-08T00:29:47;8.15;;;5.97;;
56419;SDS011;42323;52.170;7.538;2024-03-08T00:32:14;8.85;;;5.20;;
56419;SDS011;42323;52.170;7.538;2024-03-08T00:34:40;9.15;;;6.40;;
56419;SDS011;42323;52.170;7.538;2024-03-08T00:37:06;8.68;;;5.95;;
56419;SDS011;42323;52.170;7.538;2024-03-08T00:39:34;9.18;;;5.20;;
56419;SDS011;42323;52.170;7.538;2024-03-08T00:42:01;13.30;;;7.03;;
56419;SDS011;42323;52.170;7.538;2024-03-08T00:44:27;6.05;;;4.22;;
56419;SDS011;42323;52.170;7.538;2024-03-08T00:46:54;12.52;;;6.20;;
56419;SDS011;42323;52.170;7.538;2024-03-08T00:49:21;8.57;;;5.13;;
56419;SDS011;42323;52.170;7.538;2024-03-08T00:51:49;7.25;;;4.65;;
56419;SDS011;42323;52.170;7.538;2024-03-08T00:54:15;6.55;;;4.97;;
56419;SDS011;42323;52.170;7.538;2024-03-08T00:56:42;10.32;;;5.18;;
56419;SDS011;42323;52.170;7.538;2024-03-08T00:59:09;5.97;;;4.20;;
56419;SDS011;42323;52.170;7.538;2024-03-08T01:01:35;6.93;;;5.07;;
56419;SDS011;42323;52.170;7.538;2024-03-08T01:04:02;4.15;;;3.83;;
56419;SDS011;42323;52.170;7.538;2024-03-08T01:06:28;17.00;;;8.88;;
56419;SDS011;42323;52.170;7.538;2024-03-08T01:08:55;7.43;;;4.63;;
56419;SDS011;42323;52.170;7.538;2024-03-08T01:11:21;10.32;;;7.32;;
56419;SDS011;42323;52.170;7.538;2024-03-08T01:13:48;6.20;;;3.33;;
56419;SDS011;42323;52.170;7.538;2024-03-08T01:16:15;7.13;;;5.18;;
56419;SDS011;42323;52.170;7.538;2024-03-08T01:18:43;8.68;;;4.80;;
56419;SDS011;42323;52.170;7.538;2024-03-08T01:21:10;18.02;;;10.77;;
56419;SDS011;42323;52.170;7.538;2024-03-08T01:23:37;4.78;;;4.28;;
56419;SDS011;42323;52.170;7.538;2024-03-08T01:26:03;8.38;;;4.38;;
56419;SDS011;42323;52.170;7.538;2024-03-08T01:28:30;7.78;;;5.10;;
56419;SDS011;42323;52.170;7.538;2024-03-08T01:30:57;6.47;;;3.97;;
56419;SDS011;42323;52.170;7.538;2024-03-08T01:33:25;11.35;;;4.85;;
56419;SDS011;42323;52.170;7.538;2024-03-08T01:35:52;7.72;;;4.35;;
56419;SDS011;42323;52.170;7.538;2024-03-08T01:38:19;18.73;;;11.82;;
56419;SDS011;42323;52.170;7.538;2024-03-08T01:40:45;6.63;;;5.05;;
56419;SDS011;42323;52.170;7.538;2024-03-08T01:43:21;9.18;;;5.60;;
56419;SDS011;42323;52.170;7.538;2024-03-08T01:45:48;3.83;;;2.95;;
56419;SDS011;42323;52.170;7.538;2024-03-08T01:48:15;8.15;;;5.60;;
56419;SDS011;42323;52.170;7.538;2024-03-08T01:50:42;7.80;;;4.18;;
56419;SDS011;42323;52.170;7.538;2024-03-08T01:53:08;7.88;;;5.18;;
56419;SDS011;42323;52.170;7.538;2024-03-08T01:55:36;7.75;;;4.60;;
56419;SDS011;42323;52.170;7.538;2024-03-08T01:58:03;10.27;;;5.85;;
56419;SDS011;42323;52.170;7.538;2024-03-08T02:00:31;11.32;;;4.65;;
56419;SDS011;42323;52.170;7.538;2024-03-08T02:02:59;10.55;;;6.25;;
56419;SDS011;42323;52.170;7.538;2024-03-08T02:05:26;5.30;;;3.75;;
56419;SDS011;42323;52.170;7.538;2024-03-08T02:07:52;4.93;;;4.43;;
56419;SDS011;42323;52.170;7.538;2024-03-08T02:10:18;7.05;;;4.72;;
56419;SDS011;42323;52.170;7.538;2024-03-08T02:12:46;6.35;;;4.93;;
56419;SDS011;42323;52.170;7.538;2024-03-08T02:15:12;7.57;;;5.30;;
56419;SDS011;42323;52.170;7.538;2024-03-08T02:17:39;4.63;;;3.85;;
56419;SDS011;42323;52.170;7.538;2024-03-08T02:20:06;8.00;;;4.97;;
56419;SDS011;42323;52.170;7.538;2024-03-08T02:22:35;6.30;;;3.63;;
56419;SDS011;42323;52.170;7.538;2024-03-08T02:25:02;7.22;;;4.25;;
56419;SDS011;42323;52.170;7.538;2024-03-08T02:27:29;9.15;;;5.40;;
56419;SDS011;42323;52.170;7.538;2024-03-08T02:29:56;9.00;;;5.13;;
56419;SDS011;42323;52.170;7.538;2024-03-08T02:32:23;5.40;;;3.88;;
56419;SDS011;42323;52.170;7.538;2024-03-08T02:34:50;12.82;;;5.90;;
56419;SDS011;42323;52.170;7.538;2024-03-08T02:37:17;9.18;;;5.85;;
56419;SDS011;42323;52.170;7.538;2024-03-08T02:39:43;9.65;;;5.45;;
56419;SDS011;42323;52.170;7.538;2024-03-08T02:42:10;6.15;;;4.60;;
56419;SDS011;42323;52.170;7.538;2024-03-08T02:44:36;6.55;;;4.85;;
56419;SDS011;42323;52.170;7.538;2024-03-08T02:47:03;6.95;;;4.43;;
56419;SDS011;42323;52.170;7.538;2024-03-08T02:49:30;26.15;;;11.98;;
56419;SDS011;42323;52.170;7.538;2024-03-08T02:51:57;8.02;;;5.40;;
56419;SDS011;42323;52.170;7.538;2024-03-08T02:54:24;8.82;;;6.65;;
56419;SDS011;42323;52.170;7.538;2024-03-08T02:56:51;5.72;;;4.53;;
56419;SDS011;42323;52.170;7.538;2024-03-08T02:59:17;9.38;;;5.68;;
56419;SDS011;42323;52.170;7.538;2024-03-08T03:01:45;11.15;;;4.13;;
56419;SDS011;42323;52.170;7.538;2024-03-08T03:04:11;10.55;;;6.68;;
56419;SDS011;42323;52.170;7.538;2024-03-08T03:06:38;7.85;;;5.63;;
56419;SDS011;42323;52.170;7.538;2024-03-08T03:09:04;10.25;;;4.85;;
56419;SDS011;42323;52.170;7.538;2024-03-08T03:11:32;8.73;;;6.40;;
56419;SDS011;42323;52.170;7.538;2024-03-08T03:13:59;8.07;;;5.50;;
56419;SDS011;42323;52.170;7.538;2024-03-08T03:16:25;8.07;;;5.55;;
56419;SDS011;42323;52.170;7.538;2024-03-08T03:18:52;8.63;;;5.70;;
56419;SDS011;42323;52.170;7.538;2024-03-08T03:21:18;7.57;;;4.93;;
56419;SDS011;42323;52.170;7.538;2024-03-08T03:23:45;4.07;;;3.78;;
56419;SDS011;42323;52.170;7.538;2024-03-08T03:26:11;6.32;;;5.60;;
56419;SDS011;42323;52.170;7.538;2024-03-08T03:28:38;4.13;;;3.53;;
56419;SDS011;42323;52.170;7.538;2024-03-08T03:31:06;8.70;;;6.43;;
56419;SDS011;42323;52.170;7.538;2024-03-08T03:33:35;8.82;;;5.20;;
56419;SDS011;42323;52.170;7.538;2024-03-08T03:36:03;13.82;;;8.77;;
56419;SDS011;42323;52.170;7.538;2024-03-08T03:38:31;18.25;;;6.85;;
56419;SDS011;42323;52.170;7.538;2024-03-08T03:40:58;12.20;;;6.75;;
56419;SDS011;42323;52.170;7.538;2024-03-08T03:43:30;6.38;;;4.43;;
56419;SDS011;42323;52.170;7.538;2024-03-08T03:45:57;5.45;;;4.35;;
56419;SDS011;42323;52.170;7.538;2024-03-08T03:48:23;7.20;;;4.45;;
56419;SDS011;42323;52.170;7.538;2024-03-08T03:50:50;5.75;;;5.25;;
56419;SDS011;42323;52.170;7.538;2024-03-08T03:53:16;5.97;;;4.00;;
56419;SDS011;42323;52.170;7.538;2024-03-08T03:55:43;4.50;;;3.75;;
56419;SDS011;42323;52.170;7.538;2024-03-08T03:58:09;9.35;;;6.38;;
56419;SDS011;42323;52.170;7.538;2024-03-08T04:00:37;7.88;;;5.30;;
56419;SDS011;42323;52.170;7.538;2024-03-08T04:03:04;7.68;;;5.55;;
56419;SDS011;42323;52.170;7.538;2024-03-08T04:05:31;7.28;;;5.30;;
56419;SDS011;42323;52.170;7.538;2024-03-08T04:07:58;11.30;;;5.18;;
56419;SDS011;42323;52.170;7.538;2024-03-08T04:10:24;5.28;;;4.78;;
56419;SDS011;42323;52.170;7.538;2024-03-08T04:12:51;9.90;;;7.03;;
56419;SDS011;42323;52.170;7.538;2024-03-08T04:15:17;11.05;;;7.57;;
56419;SDS011;42323;52.170;7.538;2024-03-08T04:17:44;12.75;;;5.93;;
56419;SDS011;42323;52.170;7.538;2024-03-08T04:20:12;8.73;;;5.05;;
56419;SDS011;42323;52.170;7.538;2024-03-08T04:22:40;8.35;;;5.65;;
56419;SDS011;42323;52.170;7.538;2024-03-08T04:25:06;7.05;;;6.40;;
56419;SDS011;42323;52.170;7.538;2024-03-08T04:27:33;9.18;;;5.35;;
56419;SDS011;42323;52.170;7.538;2024-03-08T04:30:01;6.25;;;5.38;;
56419;SDS011;42323;52.170;7.538;2024-03-08T04:32:28;11.02;;;6.60;;
56419;SDS011;42323;52.170;7.538;2024-03-08T04:34:56;5.07;;;4.65;;
56419;SDS011;42323;52.170;7.538;2024-03-08T04:37:23;8.98;;;6.43;;
56419;SDS011;42323;52.170;7.538;2024-03-08T04:39:50;6.93;;;5.10;;
56419;SDS011;42323;52.170;7.538;2024-03-08T04:42:16;11.20;;;5.05;;
56419;SDS011;42323;52.170;7.538;2024-03-08T04:44:44;10.02;;;6.85;;
56419;SDS011;42323;52.170;7.538;2024-03-08T04:47:11;8.80;;;4.95;;
56419;SDS011;42323;52.170;7.538;2024-03-08T04:49:38;8.00;;;6.72;;
56419;SDS011;42323;52.170;7.538;2024-03-08T04:52:04;3.58;;;3.28;;
56419;SDS011;42323;52.170;7.538;2024-03-08T04:54:31;4.78;;;3.65;;
56419;SDS011;42323;52.170;7.538;2024-03-08T04:56:57;5.95;;;5.10;;
56419;SDS011;42323;52.170;7.538;2024-03-08T04:59:26;14.68;;;6.57;;
56419;SDS011;42323;52.170;7.538;2024-03-08T05:01:53;8.73;;;6.65;;
56419;SDS011;42323;52.170;7.538;2024-03-08T05:04:20;7.15;;;5.03;;
56419;SDS011;42323;52.170;7.538;2024-03-08T05:06:46;6.53;;;4.65;;
56419;SDS011;42323;52.170;7.538;2024-03-08T05:09:13;3.88;;;3.13;;
56419;SDS011;42323;52.170;7.538;2024-03-08T05:11:43;6.82;;;5.20;;
56419;SDS011;42323;52.170;7.538;2024-03-08T05:14:10;5.05;;;4.20;;
56419;SDS011;42323;52.170;7.538;2024-03-08T05:16:37;5.45;;;4.35;;
56419;SDS011;42323;52.170;7.538;2024-03-08T05:19:03;7.22;;;5.28;;
56419;SDS011;42323;52.170;7.538;2024-03-08T05:21:30;5.85;;;4.97;;
56419;SDS011;42323;52.170;7.538;2024-03-08T05:23:56;8.65;;;5.50;;
56419;SDS011;42323;52.170;7.538;2024-03-08T05:26:23;7.88;;;5.78;;
56419;SDS011;42323;52.170;7.538;2024-03-08T05:28:49;7.30;;;5.18;;
56419;SDS011;42323;52.170;7.538;2024-03-08T05:31:19;8.90;;;5.20;;
56419;SDS011;42323;52.170;7.538;2024-03-08T05:33:48;8.27;;;5.78;;
56419;SDS011;42323;52.170;7.538;2024-03-08T05:36:15;7.63;;;5.45;;
56419;SDS011;42323;52.170;7.538;2024-03-08T05:38:43;9.23;;;5.68;;
56419;SDS011;42323;52.170;7.538;2024-03-08T05:41:10;14.65;;;4.60;;
56419;SDS011;42323;52.170;7.538;2024-03-08T05:43:38;6.28;;;5.68;;
56419;SDS011;42323;52.170;7.538;2024-03-08T05:46:05;6.00;;;3.78;;
56419;SDS011;42323;52.170;7.538;2024-03-08T05:48:31;8.27;;;5.68;;
56419;SDS011;42323;52.170;7.538;2024-03-08T05:51:01;10.50;;;4.93;;
56419;SDS011;42323;52.170;7.538;2024-03-08T05:53:28;18.42;;;9.00;;
56419;SDS011;42323;52.170;7.538;2024-03-08T05:55:58;10.10;;;6.35;;
56419;SDS011;42323;52.170;7.538;2024-03-08T05:58:25;8.45;;;5.85;;
56419;SDS011;42323;52.170;7.538;2024-03-08T06:00:51;9.32;;;6.95;;
56419;SDS011;42323;52.170;7.538;2024-03-08T06:03:19;10.55;;;5.95;;
56419;SDS011;42323;52.170;7.538;2024-03-08T06:05:48;16.50;;;7.53;;
56419;SDS011;42323;52.170;7.538;2024-03-08T06:08:15;9.98;;;7.28;;
56419;SDS011;42323;52.170;7.538;2024-03-08T06:10:41;9.50;;;6.70;;
56419;SDS011;42323;52.170;7.538;2024-03-08T06:13:08;11.00;;;6.63;;
56419;SDS011;42323;52.170;7.538;2024-03-08T06:15:34;14.27;;;8.48;;
56419;SDS011;42323;52.170;7.538;2024-03-08T06:18:01;6.30;;;4.15;;
56419;SDS011;42323;52.170;7.538;2024-03-08T06:20:27;17.80;;;8.02;;
56419;SDS011;42323;52.170;7.538;2024-03-08T06:22:54;9.38;;;6.13;;
56419;SDS011;42323;52.170;7.538;2024-03-08T06:25:21;9.00;;;5.82;;
56419;SDS011;42323;52.170;7.538;2024-03-08T06:27:47;6.88;;;4.47;;
56419;SDS011;42323;52.170;7.538;2024-03-08T06:30:13;5.70;;;4.82;;
56419;SDS011;42323;52.170;7.538;2024-03-08T06:32:42;12.30;;;7.00;;
56419;SDS011;42323;52.170;7.538;2024-03-08T06:35:09;5.72;;;5.10;;
56419;SDS011;42323;52.170;7.538;2024-03-08T06:37:36;7.47;;;5.50;;
56419;SDS011;42323;52.170;7.538;2024-03-08T06:42:48;5.75;;;4.95;;
56419;SDS011;42323;52.170;7.538;2024-03-08T06:45:14;4.68;;;3.40;;
56419;SDS011;42323;52.170;7.538;2024-03-08T06:47:45;12.57;;;6.03;;
56419;SDS011;42323;52.170;7.538;2024-03-08T06:50:12;8.02;;;6.15;;
56419;SDS011;42323;52.170;7.538;2024-03-08T06:52:39;23.52;;;11.95;;
56419;SDS011;42323;52.170;7.538;2024-03-08T06:55:06;8.20;;;6.28;;
56419;SDS011;42323;52.170;7.538;2024-03-08T06:57:33;14.05;;;9.30;;
56419;SDS011;42323;52.170;7.538;2024-03-08T07:00:00;9.13;;;6.15;;
56419;SDS011;42323;52.170;7.538;2024-03-08T07:02:27;8.48;;;6.75;;
56419;SDS011;42323;52.170;7.538;2024-03-08T07:04:53;10.90;;;6.35;;
56419;SDS011;42323;52.170;7.538;2024-03-08T07:07:20;26.83;;;13.57;;
56419;SDS011;42323;52.170;7.538;2024-03-08T07:09:47;13.07;;;7.93;;
56419;SDS011;42323;52.170;7.538;2024-03-08T07:12:15;9.48;;;6.72;;
56419;SDS011;42323;52.170;7.538;2024-03-08T07:14:41;9.23;;;7.72;;
56419;SDS011;42323;52.170;7.538;2024-03-08T07:17:12;14.23;;;8.40;;
56419;SDS011;42323;52.170;7.538;2024-03-08T07:19:38;12.80;;;8.02;;
56419;SDS011;42323;52.170;7.538;2024-03-08T07:22:05;7.78;;;5.35;;
56419;SDS011;42323;52.170;7.538;2024-03-08T07:24:35;7.60;;;5.97;;
56419;SDS011;42323;52.170;7.538;2024-03-08T07:27:04;11.18;;;6.38;;
56419;SDS011;42323;52.170;7.538;2024-03-08T07:29:32;25.48;;;6.78;;
56419;SDS011;42323;52.170;7.538;2024-03-08T07:31:59;5.45;;;3.97;;
56419;SDS011;42323;52.170;7.538;2024-03-08T07:34:40;12.02;;;7.82;;
56419;SDS011;42323;52.170;7.538;2024-03-08T07:37:07;8.63;;;6.38;;
56419;SDS011;42323;52.170;7.538;2024-03-08T07:39:37;9.57;;;7.38;;
56419;SDS011;42323;52.170;7.538;2024-03-08T07:42:05;12.02;;;7.60;;
56419;SDS011;42323;52.170;7.538;2024-03-08T07:44:31;9.20;;;5.82;;
56419;SDS011;42323;52.170;7.538;2024-03-08T07:46:59;11.13;;;7.60;;
56419;SDS011;42323;52.170;7.538;2024-03-08T07:49:25;4.07;;;3.70;;
56419;SDS011;42323;52.170;7.538;2024-03-08T07:51:52;14.90;;;7.63;;
56419;SDS011;42323;52.170;7.538;2024-03-08T07:54:18;10.88;;;6.30;;
56419;SDS011;42323;52.170;7.538;2024-03-08T07:56:45;11.63;;;9.45;;
56419;SDS011;42323;52.170;7.538;2024-03-08T07:59:11;13.48;;;8.00;;
56419;SDS011;42323;52.170;7.538;2024-03-08T08:01:38;16.52;;;8.35;;
56419;SDS011;42323;52.170;7.538;2024-03-08T08:04:04;8.93;;;6.63;;
56419;SDS011;42323;52.170;7.538;2024-03-08T08:06:31;9.77;;;6.95;;
56419;SDS011;42323;52.170;7.538;2024-03-08T08:09:01;10.20;;;6.63;;
56419;SDS011;42323;52.170;7.538;2024-03-08T08:11:27;11.38;;;6.45;;
56419;SDS011;42323;52.170;7.538;2024-03-08T08:13:55;12.60;;;8.68;;
56419;SDS011;42323;52.170;7.538;2024-03-08T08:16:24;21.50;;;11.80;;
56419;SDS011;42323;52.170;7.538;2024-03-08T08:18:52;17.00;;;9.13;;
56419;SDS011;42323;52.170;7.538;2024-03-08T08:21:19;24.48;;;12.77;;
56419;SDS011;42323;52.170;7.538;2024-03-08T08:23:45;23.33;;;11.48;;
56419;SDS011;42323;52.170;7.538;2024-03-08T08:26:12;22.77;;;11.43;;
56419;SDS011;42323;52.170;7.538;2024-03-08T08:28:39;31.75;;;15.90;;
56419;SDS011;42323;52.170;7.538;2024-03-08T08:31:07;28.80;;;13.10;;
56419;SDS011;42323;52.170;7.538;2024-03-08T08:33:34;24.80;;;12.02;;
56419;SDS011;42323;52.170;7.538;2024-03-08T08:36:01;18.92;;;9.43;;
56419;SDS011;42323;52.170;7.538;2024-03-08T08:38:28;19.83;;;10.55;;
56419;SDS011;42323;52.170;7.538;2024-03-08T08:40:54;29.02;;;12.55;;
56419;SDS011;42323;52.170;7.538;2024-03-08T08:43:21;18.67;;;10.57;;
56419;SDS011;42323;52.170;7.538;2024-03-08T08:45:50;21.65;;;11.48;;
56419;SDS011;42323;52.170;7.538;2024-03-08T08:48:20;30.50;;;14.40;;
56419;SDS011;42323;52.170;7.538;2024-03-08T08:50:47;27.02;;;13.45;;
56419;SDS011;42323;52.170;7.538;2024-03-08T08:53:14;22.13;;;11.38;;
56419;SDS011;42323;52.170;7.538;2024-03-08T08:55:41;27.58;;;12.18;;
56419;SDS011;42323;52.170;7.538;2024-03-08T08:58:07;26.20;;;13.32;;
56419;SDS011;42323;52.170;7.538;2024-03-08T09:00:33;30.27;;;13.90;;
56419;SDS011;42323;52.170;7.538;2024-03-08T09:03:00;23.58;;;13.02;;
56419;SDS011;42323;52.170;7.538;2024-03-08T09:05:28;27.45;;;11.95;;
56419;SDS011;42323;52.170;7.538;2024-03-08T09:07:55;25.55;;;12.55;;
56419;SDS011;42323;52.170;7.538;2024-03-08T09:10:21;33.25;;;12.93;;
56419;SDS011;42323;52.170;7.538;2024-03-08T09:12:48;19.55;;;10.98;;
56419;SDS011;42323;52.170;7.538;2024-03-08T09:15:14;27.50;;;13.80;;
56419;SDS011;42323;52.170;7.538;2024-03-08T09:17:44;26.05;;;13.38;;
56419;SDS011;42323;52.170;7.538;2024-03-08T09:20:10;25.38;;;12.38;;
56419;SDS011;42323;52.170;7.538;2024-03-08T09:22:44;22.92;;;11.98;;
56419;SDS011;42323;52.170;7.538;2024-03-08T09:25:12;23.92;;;11.93;;
56419;SDS011;42323;52.170;7.538;2024-03-08T09:27:38;27.10;;;13.10;;
56419;SDS011;42323;52.170;7.538;2024-03-08T09:30:06;26.60;;;13.73;;
56419;SDS011;42323;52.170;7.538;2024-03-08T09:32:34;23.40;;;10.77;;
56419;SDS011;42323;52.170;7.538;2024-03-08T09:35:01;29.73;;;14.13;;
56419;SDS011;42323;52.170;7.538;2024-03-08T09:37:28;25.63;;;13.57;;
56419;SDS011;42323;52.170;7.538;2024-03-08T09:39:54;27.77;;;12.55;;
56419;SDS011;42323;52.170;7.538;2024-03-08T09:42:21;24.58;;;13.35;;
56419;SDS011;42323;52.170;7.538;2024-03-08T09:44:47;22.45;;;13.02;;
56419;SDS011;42323;52.170;7.538;2024-03-08T09:47:14;28.35;;;12.80;;
56419;SDS011;42323;52.170;7.538;2024-03-08T09:49:41;25.20;;;12.80;;
56419;SDS011;42323;52.170;7.538;2024-03-08T09:52:09;30.95;;;13.25;;
56419;SDS011;42323;52.170;7.538;2024-03-08T09:54:36;23.83;;;13.00;;
56419;SDS011;42323;52.170;7.538;2024-03-08T09:57:06;25.15;;;13.00;;
56419;SDS011;42323;52.170;7.538;2024-03-08T09:59:34;28.05;;;13.52;;
56419;SDS011;42323;52.170;7.538;2024-03-08T10:02:03;22.63;;;12.65;;
56419;SDS011;42323;52.170;7.538;2024-03-08T10:04:31;26.45;;;13.55;;
56419;SDS011;42323;52.170;7.538;2024-03-08T10:07:00;27.00;;;13.30;;
56419;SDS011;42323;52.170;7.538;2024-03-08T10:09:26;21.50;;;12.32;;
56419;SDS011;42323;52.170;7.538;2024-03-08T10:11:57;23.50;;;13.07;;
56419;SDS011;42323;52.170;7.538;2024-03-08T10:14:26;26.65;;;14.07;;
56419;SDS011;42323;52.170;7.538;2024-03-08T10:16:53;23.70;;;13.13;;
56419;SDS011;42323;52.170;7.538;2024-03-08T10:19:20;20.73;;;12.15;;
56419;SDS011;42323;52.170;7.538;2024-03-08T10:21:50;23.17;;;12.75;;
56419;SDS011;42323;52.170;7.538;2024-03-08T10:24:20;21.55;;;12.80;;
56419;SDS011;42323;52.170;7.538;2024-03-08T10:26:47;25.80;;;14.65;;
56419;SDS011;42323;52.170;7.538;2024-03-08T10:29:14;22.67;;;12.82;;
56419;SDS011;42323;52.170;7.538;2024-03-08T10:31:45;24.00;;;14.38;;
56419;SDS011;42323;52.170;7.538;2024-03-08T10:34:11;22.45;;;12.68;;
56419;SDS011;42323;52.170;7.538;2024-03-08T10:36:38;22.63;;;13.68;;
56419;SDS011;42323;52.170;7.538;2024-03-08T10:39:14;29.35;;;15.00;;
56419;SDS011;42323;52.170;7.538;2024-03-08T10:41:43;26.48;;;13.32;;
56419;SDS011;42323;52.170;7.538;2024-03-08T10:44:18;24.60;;;14.38;;
56419;SDS011;42323;52.170;7.538;2024-03-08T10:49:16;25.83;;;14.07;;
56419;SDS011;42323;52.170;7.538;2024-03-08T10:51:44;21.40;;;13.13;;
56419;SDS011;42323;52.170;7.538;2024-03-08T10:54:12;24.08;;;13.30;;
56419;SDS011;42323;52.170;7.538;2024-03-08T10:56:41;26.50;;;14.32;;
56419;SDS011;42323;52.170;7.538;2024-03-08T10:59:08;23.13;;;14.43;;
56419;SDS011;42323;52.170;7.538;2024-03-08T11:01:35;21.70;;;14.82;;
56419;SDS011;42323;52.170;7.538;2024-03-08T11:04:04;25.42;;;16.45;;
56419;SDS011;42323;52.170;7.538;2024-03-08T11:06:41;26.20;;;15.85;;
56419;SDS011;42323;52.170;7.538;2024-03-08T11:09:11;27.50;;;16.70;;
56419;SDS011;42323;52.170;7.538;2024-03-08T11:11:43;25.40;;;15.07;;
56419;SDS011;42323;52.170;7.538;2024-03-08T11:16:55;22.67;;;13.40;;
56419;SDS011;42323;52.170;7.538;2024-03-08T11:19:23;19.30;;;12.02;;
56419;SDS011;42323;52.170;7.538;2024-03-08T11:21:57;19.40;;;12.15;;
56419;SDS011;42323;52.170;7.538;2024-03-08T11:24:23;18.02;;;11.80;;
56419;SDS011;42323;52.170;7.538;2024-03-08T11:26:52;20.95;;;11.55;;
56419;SDS011;42323;52.170;7.538;2024-03-08T11:34:33;20.13;;;12.07;;
56419;SDS011;42323;52.170;7.538;2024-03-08T11:36:59;21.30;;;13.13;;
56419;SDS011;42323;52.170;7.538;2024-03-08T11:39:26;18.92;;;11.35;;
56419;SDS011;42323;52.170;7.538;2024-03-08T11:41:53;17.17;;;10.90;;
56419;SDS011;42323;52.170;7.538;2024-03-08T11:44:19;19.45;;;12.38;;
56419;SDS011;42323;52.170;7.538;2024-03-08T11:46:46;19.35;;;12.35;;
56419;SDS011;42323;52.170;7.538;2024-03-08T11:49:16;18.83;;;11.48;;
56419;SDS011;42323;52.170;7.538;2024-03-08T11:51:43;20.27;;;11.88;;
56419;SDS011;42323;52.170;7.538;2024-03-08T11:54:12;16.58;;;11.38;;
56419;SDS011;42323;52.170;7.538;2024-03-08T11:56:39;20.55;;;11.07;;
56419;SDS011;42323;52.170;7.538;2024-03-08T12:02:01;18.98;;;11.63;;
56419;SDS011;42323;52.170;7.538;2024-03-08T12:04:28;18.45;;;12.35;;
56419;SDS011;42323;52.170;7.538;2024-03-08T12:06:55;17.90;;;11.43;;
56419;SDS011;42323;52.170;7.538;2024-03-08T12:09:21;19.00;;;11.85;;
56419;SDS011;42323;52.170;7.538;2024-03-08T12:11:48;19.58;;;12.02;;
56419;SDS011;42323;52.170;7.538;2024-03-08T12:14:15;22.60;;;14.05;;
56419;SDS011;42323;52.170;7.538;2024-03-08T12:16:41;23.50;;;14.95;;
56419;SDS011;42323;52.170;7.538;2024-03-08T12:19:09;23.95;;;15.50;;
56419;SDS011;42323;52.170;7.538;2024-03-08T12:21:36;65.57;;;43.67;;
56419;SDS011;42323;52.170;7.538;2024-03-08T12:24:03;70.75;;;62.45;;
56419;SDS011;42323;52.170;7.538;2024-03-08T12:26:30;80.28;;;68.20;;
56419;SDS011;42323;52.170;7.538;2024-03-08T12:31:51;63.47;;;53.70;;
56419;SDS011;42323;52.170;7.538;2024-03-08T12:34:21;61.67;;;51.05;;
56419;SDS011;42323;52.170;7.538;2024-03-08T12:36:48;60.95;;;53.60;;
56419;SDS011;42323;52.170;7.538;2024-03-08T12:39:16;80.00;;;66.45;;
56419;SDS011;42323;52.170;7.538;2024-03-08T12:41:44;88.70;;;70.63;;
56419;SDS011;42323;52.170;7.538;2024-03-08T12:44:10;57.45;;;50.33;;
56419;SDS011;42323;52.170;7.538;2024-03-08T12:46:37;59.25;;;52.90;;
56419;SDS011;42323;52.170;7.538;2024-03-08T12:49:08;74.47;;;64.55;;
56419;SDS011;42323;52.170;7.538;2024-03-08T12:51:35;32.67;;;22.33;;
56419;SDS011;42323;52.170;7.538;2024-03-08T12:54:03;29.85;;;26.08;;
56419;SDS011;42323;52.170;7.538;2024-03-08T12:56:33;37.00;;;33.03;;
56419;SDS011;42323;52.170;7.538;2024-03-08T12:59:00;37.53;;;27.73;;
56419;SDS011;42323;52.170;7.538;2024-03-08T13:01:27;37.78;;;26.45;;
56419;SDS011;42323;52.170;7.538;2024-03-08T13:03:53;40.28;;;24.85;;
56419;SDS011;42323;52.170;7.538;2024-03-08T13:06:21;41.55;;;30.90;;
56419;SDS011;42323;52.170;7.538;2024-03-08T13:08:50;49.08;;;41.75;;
56419;SDS011;42323;52.170;7.538;2024-03-08T13:11:21;68.82;;;59.47;;
56419;SDS011;42323;52.170;7.538;2024-03-08T13:13:50;55.08;;;44.67;;
56419;SDS011;42323;52.170;7.538;2024-03-08T13:16:16;46.90;;;41.85;;
56419;SDS011;42323;52.170;7.538;2024-03-08T13:18:45;58.83;;;48.53;;
56419;SDS011;42323;52.170;7.538;2024-03-08T13:21:19;61.78;;;53.53;;
56419;SDS011;42323;52.170;7.538;2024-03-08T13:23:50;72.95;;;61.33;;
56419;SDS011;42323;52.170;7.538;2024-03-08T13:26:19;68.70;;;60.95;;
56419;SDS011;42323;52.170;7.538;2024-03-08T13:28:46;71.32;;;63.58;;
56419;SDS011;42323;52.170;7.538;2024-03-08T13:31:15;83.32;;;68.43;;
56419;SDS011;42323;52.170;7.538;2024-03-08T13:33:42;111.93;;;87.55;;
56419;SDS011;42323;52.170;7.538;2024-03-08T13:36:09;110.25;;;84.25;;
56419;SDS011;42323;52.170;7.538;2024-03-08T13:41:12;143.40;;;97.72;;
56419;SDS011;42323;52.170;7.538;2024-03-08T13:43:41;117.25;;;89.82;;
56419;SDS011;42323;52.170;7.538;2024-03-08T13:46:07;136.57;;;96.88;;
56419;SDS011;42323;52.170;7.538;2024-03-08T13:48:36;126.97;;;90.90;;
56419;SDS011;42323;52.170;7.538;2024-03-08T13:51:06;177.30;;;112.70;;
56419;SDS011;42323;52.170;7.538;2024-03-08T13:53:34;178.10;;;111.20;;
56419;SDS011;42323;52.170;7.538;2024-03-08T13:56:04;175.18;;;110.55;;
56419;SDS011;42323;52.170;7.538;2024-03-08T13:58:32;196.93;;;119.32;;
56419;SDS011;42323;52.170;7.538;2024-03-08T14:00:58;151.63;;;102.95;;
56419;SDS011;42323;52.170;7.538;2024-03-08T14:03:26;157.20;;;105.25;;
56419;SDS011;42323;52.170;7.538;2024-03-08T14:05:53;144.70;;;98.43;;
56419;SDS011;42323;52.170;7.538;2024-03-08T14:08:22;158.00;;;104.38;;
56419;SDS011;42323;52.170;7.538;2024-03-08T14:10:48;177.13;;;112.40;;
56419;SDS011;42323;52.170;7.538;2024-03-08T14:13:16;152.40;;;102.40;;
56419;SDS011;42323;52.170;7.538;2024-03-08T14:15:45;159.25;;;104.28;;
56419;SDS011;42323;52.170;7.538;2024-03-08T14:18:12;143.95;;;98.45;;
56419;SDS011;42323;52.170;7.538;2024-03-08T14:20:39;149.00;;;101.68;;
56419;SDS011;42323;52.170;7.538;2024-03-08T14:23:06;220.25;;;126.32;;
56419;SDS011;42323;52.170;7.538;2024-03-08T14:25:34;260.27;;;138.80;;
56419;SDS011;42323;52.170;7.538;2024-03-08T14:28:01;305.38;;;153.57;;
56419;SDS011;42323;52.170;7.538;2024-03-08T14:30:33;306.33;;;152.70;;
56419;SDS011;42323;52.170;7.538;2024-03-08T14:33:07;341.80;;;162.43;;
56419;SDS011;42323;52.170;7.538;2024-03-08T14:35:37;300.90;;;150.90;;
56419;SDS011;42323;52.170;7.538;2024-03-08T14:38:04;312.88;;;155.10;;
56419;SDS011;42323;52.170;7.538;2024-03-08T14:40:30;322.45;;;157.27;;
56419;SDS011;42323;52.170;7.538;2024-03-08T14:42:58;125.03;;;87.80;;
56419;SDS011;42323;52.170;7.538;2024-03-08T14:45:24;122.50;;;90.93;;
56419;SDS011;42323;52.170;7.538;2024-03-08T14:47:52;219.68;;;116.28;;
56419;SDS011;42323;52.170;7.538;2024-03-08T14:50:19;66.30;;;59.15;;
56419;SDS011;42323;52.170;7.538;2024-03-08T14:52:46;91.65;;;74.97;;